Time,TemperatureF,DewpointF,PressureIn,WindDirection,WindDirectionDegrees,WindSpeedMPH,WindSpeedGustMPH,Humidity,HourlyPrecipIn,Conditions,Clouds,dailyrainin,SolarRadiationWatts/m^2,SoftwareType,DateUTC
2013-07-13 00:01:00,69.9,67.5,30.07,ESE,112,0.0,0.0,92,0.00,,OVC,0.00,0.00,VWS V14.00,2013-07-13 04:01:00,
2013-07-13 00:02:00,69.9,67.5,30.07,NE,45,7.6,7.6,92,0.00,,OVC,0.00,0.00,VWS V14.00,2013-07-13 04:02:00,
2013-07-13 00:07:00,69.9,67.5,30.06,ESE,112,0.0,0.0,92,0.00,,OVC,0.00,0.00,VWS V14.00,2013-07-13 04:07:00,
2013-07-13 00:12:00,69.9,67.5,30.07,North,0,0.0,0.0,92,0.00,,OVC,0.00,0.00,VWS V14.00,2013-07-13 04:12:00,
2013-07-13 00:17:00,69.9,67.5,30.06,SSW,202,0.0,0.0,92,0.00,,OVC,0.00,0.00,VWS V14.00,2013-07-13 04:17:00,
2013-07-13 00:22:00,69.9,67.5,30.07,SSE,158,0.0,0.0,92,0.00,,OVC,0.00,0.00,VWS V14.00,2013-07-13 04:22:00,
2013-07-13 00:27:00,70.1,67.7,30.07,ESE,112,2.6,2.6,92,0.00,,OVC,0.00,0.00,VWS V14.00,2013-07-13 04:27:00,
2013-07-13 00:32:00,70.1,67.7,30.07,NE,45,0.0,0.0,92,0.00,,OVC,0.00,0.00,VWS V14.00,2013-07-13 04:32:00,
2013-07-13 00:37:00,70.3,67.9,30.07,South,180,0.0,0.0,92,0.00,,OVC,0.00,0.00,VWS V14.00,2013-07-13 04:37:00,
2013-07-13 00:42:00,70.3,67.9,30.08,South,180,0.0,0.0,92,0.00,,OVC,0.00,0.00,VWS V14.00,2013-07-13 04:42:00,
2013-07-13 00:47:00,70.3,67.9,30.07,East,90,0.0,0.0,92,0.00,,OVC,0.00,0.00,VWS V14.00,2013-07-13 04:47:00,
2013-07-13 00:52:00,70.3,67.9,30.08,ENE,68,1.7,1.7,92,0.00,,OVC,0.00,0.00,VWS V14.00,2013-07-13 04:52:00,
2013-07-13 00:57:00,70.3,67.9,30.08,SSE,158,4.6,4.6,92,0.00,,OVC,0.00,0.00,VWS V14.00,2013-07-13 04:57:00,
2013-07-13 01:02:00,70.5,68.1,30.08,NNE,22,0.0,0.0,92,0.00,,OVC,0.00,0.00,VWS V14.00,2013-07-13 05:02:00,
2013-07-13 01:07:00,70.5,68.1,30.08,ESE,112,0.0,0.0,92,0.00,,OVC,0.00,0.00,VWS V14.00,2013-07-13 05:07:00,
2013-07-13 01:12:00,70.5,68.1,30.08,SE,135,1.5,1.5,92,0.00,,OVC,0.00,0.00,VWS V14.00,2013-07-13 05:12:00,
2013-07-13 01:17:00,70.8,68.4,30.08,ESE,112,0.0,0.0,92,0.00,,OVC,0.00,0.00,VWS V14.00,2013-07-13 05:17:00,
2013-07-13 01:22:00,70.8,68.4,30.08,SE,135,0.0,0.0,92,0.00,,OVC,0.00,0.00,VWS V14.00,2013-07-13 05:22:00,
2013-07-13 01:27:00,70.7,68.3,30.08,South,180,0.0,0.0,92,0.00,,OVC,0.00,0.00,VWS V14.00,2013-07-13 05:27:00,
2013-07-13 01:32:00,70.7,68.3,30.08,SSE,158,3.3,3.3,92,0.00,,OVC,0.00,0.00,VWS V14.00,2013-07-13 05:32:00,
2013-07-13 01:37:00,70.5,68.1,30.08,SE,135,0.0,0.0,92,0.00,,OVC,0.00,0.00,VWS V14.00,2013-07-13 05:37:00,
2013-07-13 01:42:00,70.5,68.1,30.08,NE,45,0.0,0.0,92,0.00,,OVC,0.00,0.00,VWS V14.00,2013-07-13 05:42:00,
2013-07-13 01:47:00,70.5,68.1,30.08,SE,135,0.6,0.6,92,0.00,,OVC,0.00,0.00,VWS V14.00,2013-07-13 05:47:00,
2013-07-13 01:52:00,70.7,68.3,30.08,SE,135,0.0,0.0,92,0.00,,OVC,0.00,0.00,VWS V14.00,2013-07-13 05:52:00,
2013-07-13 01:57:00,70.7,68.3,30.09,ESE,112,0.0,0.0,92,0.00,,OVC,0.00,0.00,VWS V14.00,2013-07-13 05:57:00,
2013-07-13 02:02:00,70.8,68.4,30.08,SE,135,1.3,1.3,92,0.00,,OVC,0.00,0.00,VWS V14.00,2013-07-13 06:02:00,
2013-07-13 02:07:00,70.8,68.4,30.09,ESE,112,0.0,0.0,92,0.00,,OVC,0.00,0.00,VWS V14.00,2013-07-13 06:07:00,
2013-07-13 02:12:00,71.0,68.6,30.08,ESE,112,0.8,0.8,92,0.00,,OVC,0.00,0.00,VWS V14.00,2013-07-13 06:12:00,
2013-07-13 02:17:00,71.2,68.8,30.09,ESE,112,0.0,0.0,92,0.00,,OVC,0.00,0.00,VWS V14.00,2013-07-13 06:17:00,
2013-07-13 02:22:00,71.2,69.1,30.09,ESE,112,0.0,0.0,93,0.00,,OVC,0.00,0.00,VWS V14.00,2013-07-13 06:22:00,
2013-07-13 02:27:00,71.2,68.8,30.09,ESE,112,0.0,0.0,92,0.00,,OVC,0.00,0.00,VWS V14.00,2013-07-13 06:27:00,
2013-07-13 02:32:00,71.2,68.8,30.09,ESE,112,0.0,0.0,92,0.00,,OVC,0.00,0.00,VWS V14.00,2013-07-13 06:32:00,
2013-07-13 02:37:00,71.2,68.8,30.08,ESE,112,0.0,0.0,92,0.00,,OVC,0.00,0.00,VWS V14.00,2013-07-13 06:37:00,
2013-07-13 02:42:00,71.4,69.0,30.08,ESE,112,0.0,0.0,92,0.00,,OVC,0.00,0.00,VWS V14.00,2013-07-13 06:42:00,
2013-07-13 02:47:00,71.4,69.0,30.08,ESE,112,0.0,0.0,92,0.00,,OVC,0.00,0.00,VWS V14.00,2013-07-13 06:47:00,
2013-07-13 02:52:00,71.4,69.0,30.08,ESE,112,0.0,0.0,92,0.00,,OVC,0.00,0.00,VWS V14.00,2013-07-13 06:52:00,
2013-07-13 02:57:00,71.4,69.3,30.08,ESE,112,0.0,0.0,93,0.00,,OVC,0.00,0.00,VWS V14.00,2013-07-13 06:57:00,
2013-07-13 03:02:00,71.4,69.3,30.09,ESE,112,0.0,0.0,93,0.00,,OVC,0.00,0.00,VWS V14.00,2013-07-13 07:02:00,
2013-07-13 03:07:00,71.6,69.2,30.09,ESE,112,0.0,0.0,92,0.00,,OVC,0.00,0.00,VWS V14.00,2013-07-13 07:07:00,
2013-07-13 03:12:00,71.6,69.5,30.09,ESE,112,0.0,0.0,93,0.00,,OVC,0.00,0.00,VWS V14.00,2013-07-13 07:12:00,
2013-07-13 03:17:00,71.6,69.5,30.09,ESE,112,0.0,0.0,93,0.00,,OVC,0.00,0.00,VWS V14.00,2013-07-13 07:17:00,
2013-07-13 03:22:00,71.6,69.2,30.09,ESE,112,0.0,0.0,92,0.00,,OVC,0.00,0.00,VWS V14.00,2013-07-13 07:22:00,
2013-07-13 03:27:00,71.4,69.3,30.09,ESE,112,0.0,0.0,93,0.00,,OVC,0.00,0.00,VWS V14.00,2013-07-13 07:27:00,
2013-07-13 03:32:00,71.4,69.3,30.09,ESE,112,0.0,0.0,93,0.00,,OVC,0.00,0.00,VWS V14.00,2013-07-13 07:32:00,
2013-07-13 03:37:00,71.4,69.3,30.09,ESE,112,0.0,0.0,93,0.00,,OVC,0.00,0.00,VWS V14.00,2013-07-13 07:37:00,
2013-07-13 03:42:00,71.4,69.3,30.10,ESE,112,2.0,2.0,93,0.00,,OVC,0.00,0.00,VWS V14.00,2013-07-13 07:42:00,
2013-07-13 03:47:00,71.4,69.3,30.10,ESE,112,0.0,0.0,93,0.00,,OVC,0.00,0.00,VWS V14.00,2013-07-13 07:47:00,
2013-07-13 03:52:00,71.2,69.1,30.10,ESE,112,0.0,0.0,93,0.00,,OVC,0.00,0.00,VWS V14.00,2013-07-13 07:52:00,
2013-07-13 03:57:00,71.2,69.1,30.10,ESE,112,0.0,0.0,93,0.00,,OVC,0.00,0.00,VWS V14.00,2013-07-13 07:57:00,
2013-07-13 04:02:00,71.2,69.1,30.10,ESE,112,0.0,0.0,93,0.00,,OVC,0.00,0.00,VWS V14.00,2013-07-13 08:02:00,
2013-07-13 04:07:00,71.2,69.1,30.11,ESE,112,0.0,0.0,93,0.00,,OVC,0.00,0.00,VWS V14.00,2013-07-13 08:07:00,
2013-07-13 04:12:00,71.2,69.1,30.11,ESE,112,0.0,0.0,93,0.00,,OVC,0.00,0.00,VWS V14.00,2013-07-13 08:12:00,
2013-07-13 04:16:00,71.0,68.9,30.11,ESE,112,0.0,0.0,93,0.00,,OVC,0.00,0.00,VWS V14.00,2013-07-13 08:16:00,
2013-07-13 04:21:00,70.8,68.7,30.11,ESE,112,0.0,0.0,93,0.00,,OVC,0.00,0.00,VWS V14.00,2013-07-13 08:21:00,
2013-07-13 04:26:00,70.8,68.7,30.11,ESE,112,0.0,0.0,93,0.00,,OVC,0.00,0.00,VWS V14.00,2013-07-13 08:26:00,
2013-07-13 04:31:00,70.8,68.7,30.11,ESE,112,0.0,0.0,93,0.00,,OVC,0.00,0.00,VWS V14.00,2013-07-13 08:31:00,
2013-07-13 04:37:00,70.8,68.7,30.11,ESE,112,0.0,0.0,93,0.00,,OVC,0.00,0.00,VWS V14.00,2013-07-13 08:37:00,
2013-07-13 04:42:00,70.8,68.7,30.12,ESE,112,0.0,0.0,93,0.00,,OVC,0.00,0.00,VWS V14.00,2013-07-13 08:42:00,
2013-07-13 04:47:00,70.8,68.7,30.12,ESE,112,0.0,0.0,93,0.00,,OVC,0.00,0.00,VWS V14.00,2013-07-13 08:47:00,
2013-07-13 04:51:00,70.7,68.6,30.12,ESE,112,0.0,0.0,93,0.00,,OVC,0.00,0.00,VWS V14.00,2013-07-13 08:51:00,
2013-07-13 04:56:00,70.7,68.6,30.12,ESE,112,0.0,0.0,93,0.00,,OVC,0.00,0.00,VWS V14.00,2013-07-13 08:56:00,
2013-07-13 05:01:00,70.5,68.4,30.12,ESE,112,0.0,0.0,93,0.00,,OVC,0.00,0.00,VWS V14.00,2013-07-13 09:01:00,
2013-07-13 05:06:00,70.5,68.4,30.12,ESE,112,0.0,0.0,93,0.00,,OVC,0.00,0.00,VWS V14.00,2013-07-13 09:06:00,
2013-07-13 05:11:00,70.5,68.4,30.12,ESE,112,0.0,0.0,93,0.00,,OVC,0.00,0.00,VWS V14.00,2013-07-13 09:11:00,
2013-07-13 05:16:00,70.5,68.4,30.12,ESE,112,0.0,0.0,93,0.00,,OVC,0.00,0.00,VWS V14.00,2013-07-13 09:16:00,
2013-07-13 05:21:00,70.5,68.4,30.13,ESE,112,0.0,0.0,93,0.00,,OVC,0.00,0.00,VWS V14.00,2013-07-13 09:21:00,
2013-07-13 05:26:00,70.5,68.4,30.13,ESE,112,0.0,0.0,93,0.00,,OVC,0.00,0.00,VWS V14.00,2013-07-13 09:26:00,
2013-07-13 05:31:00,70.5,68.4,30.13,ESE,112,0.0,0.0,93,0.00,,OVC,0.00,0.00,VWS V14.00,2013-07-13 09:31:00,
2013-07-13 05:36:00,70.5,68.4,30.13,ESE,112,0.0,0.0,93,0.00,,OVC,0.00,0.00,VWS V14.00,2013-07-13 09:36:00,
2013-07-13 05:41:00,70.5,68.4,30.13,ESE,112,0.0,0.0,93,0.00,,OVC,0.00,0.00,VWS V14.00,2013-07-13 09:41:00,
2013-07-13 05:46:00,70.5,68.4,30.13,ESE,112,0.0,0.0,93,0.00,,OVC,0.00,0.00,VWS V14.00,2013-07-13 09:46:00,
2013-07-13 05:51:00,70.5,68.4,30.13,ESE,112,0.0,0.0,93,0.00,,OVC,0.00,0.00,VWS V14.00,2013-07-13 09:51:00,
2013-07-13 05:56:00,70.5,68.4,30.13,ESE,112,0.0,0.0,93,0.00,,OVC,0.00,0.00,VWS V14.00,2013-07-13 09:56:00,
2013-07-13 06:01:00,70.5,68.4,30.14,ESE,112,0.0,0.0,93,0.00,,OVC,0.00,0.00,VWS V14.00,2013-07-13 10:01:00,
2013-07-13 06:06:00,70.5,68.4,30.14,ESE,112,0.0,0.0,93,0.00,,OVC,0.00,0.00,VWS V14.00,2013-07-13 10:06:00,
2013-07-13 06:11:00,70.8,68.7,30.15,ESE,112,0.0,0.0,93,0.00,,OVC,0.00,0.00,VWS V14.00,2013-07-13 10:11:00,
2013-07-13 06:16:00,71.0,68.9,30.15,ESE,112,0.0,0.0,93,0.00,,OVC,0.00,0.00,VWS V14.00,2013-07-13 10:16:00,
2013-07-13 06:21:00,71.2,69.1,30.15,ESE,112,0.0,0.0,93,0.00,,OVC,0.00,0.00,VWS V14.00,2013-07-13 10:21:00,
2013-07-13 06:26:00,71.2,69.1,30.15,ESE,112,0.0,0.0,93,0.00,,OVC,0.00,0.00,VWS V14.00,2013-07-13 10:26:00,
2013-07-13 06:31:00,71.4,69.3,30.15,ESE,112,0.0,0.0,93,0.00,,OVC,0.00,0.00,VWS V14.00,2013-07-13 10:31:00,
2013-07-13 06:36:00,71.7,69.6,30.15,ESE,112,0.0,0.0,93,0.00,,OVC,0.00,0.00,VWS V14.00,2013-07-13 10:36:00,
2013-07-13 06:41:00,71.9,69.8,30.15,ESE,112,0.0,0.0,93,0.00,,OVC,0.00,0.00,VWS V14.00,2013-07-13 10:41:00,
2013-07-13 06:46:00,72.3,70.2,30.15,ESE,112,0.0,0.0,93,0.00,,OVC,0.00,0.00,VWS V14.00,2013-07-13 10:46:00,
2013-07-13 06:51:00,72.3,70.2,30.15,ESE,112,0.0,0.0,93,0.00,,OVC,0.00,0.00,VWS V14.00,2013-07-13 10:51:00,
2013-07-13 06:56:00,72.5,70.4,30.15,ESE,112,0.0,0.0,93,0.00,,OVC,0.00,0.00,VWS V14.00,2013-07-13 10:56:00,
2013-07-13 07:01:00,72.6,70.5,30.16,ESE,112,0.0,0.0,93,0.00,,OVC,0.00,0.00,VWS V14.00,2013-07-13 11:01:00,
2013-07-13 07:06:00,73.0,70.9,30.16,ESE,112,0.0,0.0,93,0.00,,OVC,0.00,0.00,VWS V14.00,2013-07-13 11:06:00,
2013-07-13 07:11:00,73.0,70.9,30.16,ESE,112,0.0,0.0,93,0.00,,OVC,0.00,0.00,VWS V14.00,2013-07-13 11:11:00,
2013-07-13 07:16:00,73.2,71.1,30.16,ESE,112,0.0,0.0,93,0.00,,OVC,0.00,0.00,VWS V14.00,2013-07-13 11:16:00,
2013-07-13 07:21:00,73.7,71.6,30.16,ESE,112,0.0,0.0,93,0.00,,OVC,0.00,0.00,VWS V14.00,2013-07-13 11:21:00,
2013-07-13 07:26:00,74.3,72.2,30.16,ESE,112,0.0,0.0,93,0.00,,OVC,0.00,0.00,VWS V14.00,2013-07-13 11:26:00,
2013-07-13 07:31:00,75.0,72.8,30.17,ESE,112,0.0,0.0,93,0.00,,OVC,0.00,0.00,VWS V14.00,2013-07-13 11:31:00,
2013-07-13 07:36:00,76.1,73.9,30.17,ESE,112,0.0,0.0,93,0.00,,OVC,0.00,0.00,VWS V14.00,2013-07-13 11:36:00,
2013-07-13 07:41:00,76.6,74.4,30.17,ESE,112,0.0,0.0,93,0.00,,OVC,0.00,0.00,VWS V14.00,2013-07-13 11:41:00,
2013-07-13 07:46:00,77.5,75.3,30.17,ESE,112,0.0,0.0,93,0.00,,OVC,0.00,0.00,VWS V14.00,2013-07-13 11:46:00,
2013-07-13 07:51:00,78.0,75.8,30.18,ESE,112,0.0,0.0,93,0.00,,OVC,0.00,0.00,VWS V14.00,2013-07-13 11:51:00,
2013-07-13 07:56:00,78.4,75.9,30.18,ESE,112,0.0,0.0,92,0.00,,OVC,0.00,0.00,VWS V14.00,2013-07-13 11:56:00,
2013-07-13 08:01:00,78.6,75.8,30.18,ESE,112,0.0,0.0,91,0.00,,OVC,0.00,0.00,VWS V14.00,2013-07-13 12:01:00,
2013-07-13 08:06:00,78.6,75.4,30.18,ESE,112,0.0,0.0,90,0.00,,OVC,0.00,0.00,VWS V14.00,2013-07-13 12:06:00,
2013-07-13 08:11:00,80.2,77.0,30.18,SE,135,0.0,0.0,90,0.00,,OVC,0.00,0.00,VWS V14.00,2013-07-13 12:11:00,
2013-07-13 08:16:00,81.3,77.4,30.18,SE,135,0.0,0.0,88,0.00,,OVC,0.00,0.00,VWS V14.00,2013-07-13 12:16:00,
2013-07-13 08:21:00,82.7,78.1,30.18,SE,135,0.0,0.0,86,0.00,,OVC,0.00,0.00,VWS V14.00,2013-07-13 12:21:00,
2013-07-13 08:26:00,83.6,78.3,30.18,SE,135,0.0,0.0,84,0.00,,OVC,0.00,0.00,VWS V14.00,2013-07-13 12:26:00,
2013-07-13 08:31:00,84.9,78.4,30.18,ESE,112,1.1,1.1,81,0.00,,OVC,0.00,0.00,VWS V14.00,2013-07-13 12:31:00,
2013-07-13 08:36:00,85.1,77.9,30.18,SSW,202,0.0,0.0,79,0.00,,OVC,0.00,0.00,VWS V14.00,2013-07-13 12:36:00,
2013-07-13 08:41:00,84.3,76.7,30.19,ENE,68,4.2,4.2,78,0.00,,OVC,0.00,0.00,VWS V14.00,2013-07-13 12:41:00,
2013-07-13 08:46:00,83.6,75.6,30.19,SE,135,0.0,0.0,77,0.00,,OVC,0.00,0.00,VWS V14.00,2013-07-13 12:46:00,
2013-07-13 08:51:00,82.7,75.2,30.20,ESE,112,1.1,1.1,78,0.00,,OVC,0.00,0.00,VWS V14.00,2013-07-13 12:51:00,
2013-07-13 08:56:00,81.5,74.0,30.21,ESE,112,1.5,1.5,78,0.00,,OVC,0.00,0.00,VWS V14.00,2013-07-13 12:56:00,
2013-07-13 09:01:00,80.4,73.3,30.21,SSE,158,0.0,0.0,79,0.00,,OVC,0.00,0.00,VWS V14.00,2013-07-13 13:01:00,
2013-07-13 09:06:00,79.1,72.4,30.21,SSE,158,0.0,0.0,80,0.00,,OVC,0.00,0.00,VWS V14.00,2013-07-13 13:06:00,
2013-07-13 09:11:00,78.6,72.3,30.21,East,90,0.0,0.0,81,0.00,,OVC,0.00,0.00,VWS V14.00,2013-07-13 13:11:00,
2013-07-13 09:16:00,77.7,71.8,30.21,NE,45,0.6,0.6,82,0.00,,OVC,0.00,0.00,VWS V14.00,2013-07-13 13:16:00,
2013-07-13 09:21:00,77.5,71.9,30.21,NE,45,0.0,0.0,83,0.00,,OVC,0.00,0.00,VWS V14.00,2013-07-13 13:21:00,
2013-07-13 09:26:00,78.4,72.8,30.21,NE,45,3.1,3.1,83,0.00,,OVC,0.00,0.00,VWS V14.00,2013-07-13 13:26:00,
2013-07-13 09:31:00,80.2,73.8,30.21,NE,45,0.6,0.6,81,0.00,,OVC,0.00,0.00,VWS V14.00,2013-07-13 13:31:00,
2013-07-13 09:36:00,82.0,74.8,30.21,NE,45,0.0,0.0,79,0.00,,OVC,0.00,0.00,VWS V14.00,2013-07-13 13:36:00,
2013-07-13 09:41:00,83.1,75.9,30.20,NE,45,2.2,2.2,79,0.00,,OVC,0.00,0.00,VWS V14.00,2013-07-13 13:41:00,
2013-07-13 09:46:00,84.3,75.9,30.21,NE,45,3.8,3.8,76,0.00,,OVC,0.00,0.00,VWS V14.00,2013-07-13 13:46:00,
2013-07-13 09:51:00,83.8,75.0,30.21,NE,45,0.6,0.6,75,0.00,,OVC,0.00,0.00,VWS V14.00,2013-07-13 13:51:00,
2013-07-13 09:56:00,82.2,73.5,30.21,ESE,112,2.0,2.0,75,0.00,,OVC,0.00,0.00,VWS V14.00,2013-07-13 13:56:00,
2013-07-13 10:01:00,81.1,73.2,30.21,ESE,112,0.0,0.0,77,0.00,,OVC,0.00,0.00,VWS V14.00,2013-07-13 14:01:00,
2013-07-13 10:06:00,80.4,73.7,30.21,SSE,158,0.0,0.0,80,0.00,,OVC,0.00,0.00,VWS V14.00,2013-07-13 14:06:00,
2013-07-13 10:11:00,80.9,74.5,30.21,SSE,158,0.0,0.0,81,0.00,,OVC,0.00,0.00,VWS V14.00,2013-07-13 14:11:00,
2013-07-13 10:16:00,81.1,74.3,30.21,ESE,112,0.0,0.0,80,0.00,,OVC,0.00,0.00,VWS V14.00,2013-07-13 14:16:00,
2013-07-13 10:21:00,80.6,73.9,30.21,ESE,112,0.0,0.0,80,0.00,,OVC,0.00,0.00,VWS V14.00,2013-07-13 14:21:00,
2013-07-13 10:26:00,80.2,73.8,30.21,ESE,112,0.0,0.0,81,0.00,,OVC,0.00,0.00,VWS V14.00,2013-07-13 14:26:00,
2013-07-13 10:31:00,79.8,73.8,30.21,SE,135,0.0,0.0,82,0.00,,OVC,0.00,0.00,VWS V14.00,2013-07-13 14:31:00,
2013-07-13 10:36:00,79.7,73.7,30.21,SE,135,0.0,0.0,82,0.00,,OVC,0.00,0.00,VWS V14.00,2013-07-13 14:36:00,
2013-07-13 10:41:00,80.4,74.8,30.21,SE,135,0.0,0.0,83,0.00,,OVC,0.00,0.00,VWS V14.00,2013-07-13 14:41:00,
2013-07-13 10:46:00,80.7,74.7,30.22,SE,135,0.4,0.4,82,0.00,,OVC,0.00,0.00,VWS V14.00,2013-07-13 14:46:00,
2013-07-13 10:51:00,80.7,74.7,30.22,SSE,158,0.0,0.0,82,0.00,,OVC,0.00,0.00,VWS V14.00,2013-07-13 14:51:00,
2013-07-13 10:56:00,81.1,74.7,30.22,SSW,202,2.0,2.0,81,0.00,,OVC,0.00,0.00,VWS V14.00,2013-07-13 14:56:00,
2013-07-13 11:01:00,80.7,74.3,30.22,South,180,5.1,5.1,81,0.00,,OVC,0.00,0.00,VWS V14.00,2013-07-13 15:01:00,
2013-07-13 11:06:00,80.7,74.3,30.22,SSE,158,0.0,0.0,81,0.00,,OVC,0.00,0.00,VWS V14.00,2013-07-13 15:06:00,
2013-07-13 11:11:00,81.6,75.2,30.22,ENE,68,0.0,0.0,81,0.00,,OVC,0.00,0.00,VWS V14.00,2013-07-13 15:11:00,
2013-07-13 11:16:00,82.9,76.5,30.22,SSW,202,0.0,0.0,81,0.00,,OVC,0.00,0.00,VWS V14.00,2013-07-13 15:16:00,
2013-07-13 11:21:00,83.6,76.0,30.22,SE,135,0.2,0.2,78,0.00,,OVC,0.00,0.00,VWS V14.00,2013-07-13 15:21:00,
2013-07-13 11:26:00,85.1,77.1,30.22,South,180,0.0,2.9,77,0.00,,OVC,0.00,0.00,VWS V14.00,2013-07-13 15:26:00,
2013-07-13 11:31:00,86.5,77.6,30.21,SSW,202,1.7,1.7,75,0.00,,OVC,0.00,0.00,VWS V14.00,2013-07-13 15:31:00,
2013-07-13 11:36:00,87.0,77.3,30.22,SE,135,1.5,1.5,73,0.00,,OVC,0.00,0.00,VWS V14.00,2013-07-13 15:36:00,
2013-07-13 11:41:00,87.4,77.3,30.22,East,90,4.9,4.9,72,0.00,,OVC,0.00,0.00,VWS V14.00,2013-07-13 15:41:00,
2013-07-13 11:46:00,87.6,77.0,30.21,ENE,68,4.0,4.0,71,0.00,,OVC,0.00,0.00,VWS V14.00,2013-07-13 15:46:00,
2013-07-13 11:51:00,87.0,76.0,30.21,SSE,158,0.0,0.0,70,0.00,,OVC,0.00,0.00,VWS V14.00,2013-07-13 15:51:00,
2013-07-13 11:56:00,87.2,76.2,30.21,ESE,112,1.3,1.3,70,0.00,,OVC,0.00,0.00,VWS V14.00,2013-07-13 15:56:00,
2013-07-13 12:01:00,87.0,76.0,30.22,SSE,158,0.0,0.0,70,0.00,,OVC,0.00,0.00,VWS V14.00,2013-07-13 16:01:00,
2013-07-13 12:06:00,87.6,76.6,30.22,SE,135,0.4,0.4,70,0.00,,OVC,0.00,0.00,VWS V14.00,2013-07-13 16:06:00,
2013-07-13 12:11:00,87.9,76.5,30.22,SSW,202,3.3,3.3,69,0.00,,OVC,0.00,0.00,VWS V14.00,2013-07-13 16:11:00,
2013-07-13 12:16:00,88.1,76.7,30.22,South,180,2.6,2.6,69,0.00,,OVC,0.00,0.00,VWS V14.00,2013-07-13 16:16:00,
2013-07-13 12:21:00,87.9,76.5,30.22,WSW,248,2.9,2.9,69,0.00,,OVC,0.00,0.00,VWS V14.00,2013-07-13 16:21:00,
2013-07-13 12:26:00,87.4,76.4,30.22,ESE,112,10.0,10.0,70,0.00,,OVC,0.00,0.00,VWS V14.00,2013-07-13 16:26:00,
2013-07-13 12:31:00,87.0,76.0,30.22,SSE,158,0.0,0.0,70,0.00,,OVC,0.00,0.00,VWS V14.00,2013-07-13 16:31:00,
2013-07-13 12:36:00,87.6,76.2,30.22,SW,225,4.4,4.4,69,0.00,,OVC,0.00,0.00,VWS V14.00,2013-07-13 16:36:00,
2013-07-13 12:41:00,87.9,76.5,30.22,South,180,2.2,2.2,69,0.00,,OVC,0.00,0.00,VWS V14.00,2013-07-13 16:41:00,
2013-07-13 12:46:00,87.9,76.0,30.22,SSE,158,2.4,2.4,68,0.00,,OVC,0.00,0.00,VWS V14.00,2013-07-13 16:46:00,
2013-07-13 12:51:00,86.9,75.5,30.22,South,180,6.2,6.2,69,0.00,,OVC,0.00,0.00,VWS V14.00,2013-07-13 16:51:00,
2013-07-13 12:56:00,86.1,75.2,30.22,South,180,3.8,3.8,70,0.00,,OVC,0.00,0.00,VWS V14.00,2013-07-13 16:56:00,
2013-07-13 13:01:00,85.8,75.7,30.22,South,180,7.8,7.8,72,0.00,,OVC,0.00,0.00,VWS V14.00,2013-07-13 17:01:00,
2013-07-13 13:06:00,85.6,75.5,30.22,South,180,2.4,2.4,72,0.00,,OVC,0.00,0.00,VWS V14.00,2013-07-13 17:06:00,
2013-07-13 13:11:00,85.2,75.6,30.22,SSE,158,4.6,4.6,73,0.00,,OVC,0.00,0.00,VWS V14.00,2013-07-13 17:11:00,
2013-07-13 13:16:00,85.1,75.5,30.22,SW,225,0.0,0.0,73,0.00,,OVC,0.00,0.00,VWS V14.00,2013-07-13 17:16:00,
2013-07-13 13:21:00,84.9,75.7,30.22,SSW,202,5.5,5.5,74,0.00,,OVC,0.00,0.00,VWS V14.00,2013-07-13 17:21:00,
2013-07-13 13:26:00,84.9,75.7,30.22,South,180,2.2,2.2,74,0.00,,OVC,0.00,0.00,VWS V14.00,2013-07-13 17:26:00,
2013-07-13 13:31:00,85.2,76.0,30.22,SSW,202,1.1,1.1,74,0.00,,OVC,0.00,0.00,VWS V14.00,2013-07-13 17:31:00,
2013-07-13 13:36:00,85.2,75.6,30.22,South,180,0.6,0.6,73,0.00,,OVC,0.00,0.00,VWS V14.00,2013-07-13 17:36:00,
2013-07-13 13:41:00,84.9,75.3,30.22,SSE,158,0.0,0.0,73,0.00,,OVC,0.00,0.00,VWS V14.00,2013-07-13 17:41:00,
2013-07-13 13:46:00,84.3,75.5,30.21,South,180,6.9,6.9,75,0.00,,OVC,0.00,0.00,VWS V14.00,2013-07-13 17:46:00,
2013-07-13 13:51:00,84.3,75.5,30.22,South,180,3.8,3.8,75,0.00,,OVC,0.00,0.00,VWS V14.00,2013-07-13 17:51:00,
2013-07-13 13:56:00,84.0,75.2,30.21,SE,135,4.9,4.9,75,0.00,,OVC,0.00,0.00,VWS V14.00,2013-07-13 17:56:00,
2013-07-13 14:01:00,83.4,75.1,30.21,South,180,2.0,2.0,76,0.00,,OVC,0.00,0.00,VWS V14.00,2013-07-13 18:01:00,
2013-07-13 14:06:00,83.4,75.1,30.21,SSW,202,1.3,1.3,76,0.00,,OVC,0.00,0.00,VWS V14.00,2013-07-13 18:06:00,
2013-07-13 14:11:00,84.0,75.6,30.21,SSW,202,6.2,6.2,76,0.00,,OVC,0.00,0.00,VWS V14.00,2013-07-13 18:11:00,
2013-07-13 14:16:00,84.3,75.9,30.21,South,180,2.9,2.9,76,0.00,,OVC,0.00,0.00,VWS V14.00,2013-07-13 18:16:00,
2013-07-13 14:21:00,84.0,75.2,30.21,South,180,2.9,2.9,75,0.00,,OVC,0.00,0.00,VWS V14.00,2013-07-13 18:21:00,
2013-07-13 14:26:00,83.6,75.2,30.21,SSE,158,0.8,0.8,76,0.00,,OVC,0.00,0.00,VWS V14.00,2013-07-13 18:26:00,
2013-07-13 14:31:00,83.4,75.1,30.21,South,180,0.6,0.6,76,0.00,,OVC,0.00,0.00,VWS V14.00,2013-07-13 18:31:00,
2013-07-13 14:36:00,83.6,75.2,30.21,WSW,248,3.5,3.5,76,0.00,,OVC,0.00,0.00,VWS V14.00,2013-07-13 18:36:00,
2013-07-13 14:41:00,83.4,75.1,30.21,SE,135,0.0,0.0,76,0.00,,OVC,0.00,0.00,VWS V14.00,2013-07-13 18:41:00,
2013-07-13 14:46:00,83.6,75.2,30.21,SSE,158,8.5,8.5,76,0.00,,OVC,0.00,0.00,VWS V14.00,2013-07-13 18:46:00,
2013-07-13 14:51:00,83.6,75.2,30.21,South,180,1.7,1.7,76,0.00,,OVC,0.00,0.00,VWS V14.00,2013-07-13 18:51:00,
2013-07-13 14:56:00,83.6,75.6,30.21,SSE,158,0.0,0.0,77,0.00,,OVC,0.00,0.00,VWS V14.00,2013-07-13 18:56:00,
2013-07-13 15:01:00,83.8,75.8,30.21,SSE,158,2.9,2.9,77,0.00,,OVC,0.00,0.00,VWS V14.00,2013-07-13 19:01:00,
2013-07-13 15:06:00,83.8,75.4,30.21,South,180,0.0,0.0,76,0.00,,OVC,0.00,0.00,VWS V14.00,2013-07-13 19:06:00,
2013-07-13 15:11:00,83.6,75.2,30.21,SSW,202,1.5,1.5,76,0.00,,OVC,0.00,0.00,VWS V14.00,2013-07-13 19:11:00,
2013-07-13 15:16:00,82.9,74.6,30.21,ESE,112,1.5,1.5,76,0.00,,OVC,0.00,0.00,VWS V14.00,2013-07-13 19:16:00,
2013-07-13 15:21:00,82.5,74.6,30.21,SSE,158,6.2,6.2,77,0.00,,OVC,0.00,0.00,VWS V14.00,2013-07-13 19:21:00,
2013-07-13 15:26:00,82.2,74.7,30.21,South,180,0.8,0.8,78,0.00,,OVC,0.00,0.00,VWS V14.00,2013-07-13 19:26:00,
2013-07-13 15:31:00,82.2,74.7,30.21,South,180,4.2,4.2,78,0.00,,OVC,0.00,0.00,VWS V14.00,2013-07-13 19:31:00,
2013-07-13 15:36:00,82.5,74.9,30.21,East,90,2.0,2.0,78,0.00,,OVC,0.00,0.00,VWS V14.00,2013-07-13 19:36:00,
2013-07-13 15:41:00,82.7,75.2,30.21,SSE,158,0.0,0.0,78,0.00,,OVC,0.00,0.00,VWS V14.00,2013-07-13 19:41:00,
2013-07-13 15:46:00,82.9,74.9,30.21,SSE,158,1.5,1.5,77,0.00,,OVC,0.00,0.00,VWS V14.00,2013-07-13 19:46:00,
2013-07-13 15:51:00,82.9,74.9,30.21,SW,225,0.0,0.0,77,0.00,,OVC,0.00,0.00,VWS V14.00,2013-07-13 19:51:00,
2013-07-13 15:56:00,82.9,74.9,30.21,SE,135,1.7,1.7,77,0.00,,OVC,0.00,0.00,VWS V14.00,2013-07-13 19:56:00,
2013-07-13 16:01:00,82.9,74.9,30.21,SSE,158,0.0,0.0,77,0.00,,OVC,0.00,0.00,VWS V14.00,2013-07-13 20:01:00,
2013-07-13 16:06:00,83.1,74.8,30.20,South,180,0.0,0.0,76,0.00,,OVC,0.00,0.00,VWS V14.00,2013-07-13 20:06:00,
2013-07-13 16:11:00,82.5,74.2,30.21,SSW,202,1.3,1.3,76,0.00,,OVC,0.00,0.00,VWS V14.00,2013-07-13 20:11:00,
2013-07-13 16:16:00,82.0,74.1,30.21,SSE,158,4.2,4.2,77,0.00,,OVC,0.00,0.00,VWS V14.00,2013-07-13 20:16:00,
2013-07-13 16:21:00,81.6,74.1,30.21,SE,135,6.0,6.0,78,0.00,,OVC,0.00,0.00,VWS V14.00,2013-07-13 20:21:00,
2013-07-13 16:26:00,81.5,74.0,30.21,SSE,158,3.8,3.8,78,0.00,,OVC,0.00,0.00,VWS V14.00,2013-07-13 20:26:00,
2013-07-13 16:31:00,81.5,74.0,30.21,SSW,202,2.4,2.4,78,0.00,,OVC,0.00,0.00,VWS V14.00,2013-07-13 20:31:00,
2013-07-13 16:36:00,81.6,74.1,30.21,SSW,202,2.0,2.0,78,0.00,,OVC,0.00,0.00,VWS V14.00,2013-07-13 20:36:00,
2013-07-13 16:41:00,81.6,74.1,30.21,SSW,202,4.6,4.6,78,0.00,,OVC,0.00,0.00,VWS V14.00,2013-07-13 20:41:00,
2013-07-13 16:46:00,81.3,73.8,30.21,SSW,202,6.4,6.4,78,0.00,,OVC,0.00,0.00,VWS V14.00,2013-07-13 20:46:00,
2013-07-13 16:51:00,81.1,74.0,30.21,SSW,202,2.4,2.4,79,0.00,,OVC,0.00,0.00,VWS V14.00,2013-07-13 20:51:00,
2013-07-13 16:56:00,80.9,73.8,30.21,SE,135,0.0,0.0,79,0.00,,OVC,0.00,0.00,VWS V14.00,2013-07-13 20:56:00,
2013-07-13 17:01:00,80.9,73.8,30.21,SSE,158,2.6,2.6,79,0.00,,OVC,0.00,0.00,VWS V14.00,2013-07-13 21:01:00,
2013-07-13 17:06:00,80.9,73.4,30.21,ENE,68,0.0,0.0,78,0.00,,OVC,0.00,0.00,VWS V14.00,2013-07-13 21:06:00,
2013-07-13 17:11:00,80.7,73.2,30.21,SSW,202,3.8,3.8,78,0.00,,OVC,0.00,0.00,VWS V14.00,2013-07-13 21:11:00,
2013-07-13 17:16:00,80.4,73.3,30.21,SE,135,0.0,0.0,79,0.00,,OVC,0.00,0.00,VWS V14.00,2013-07-13 21:16:00,
2013-07-13 17:21:00,79.8,72.7,30.22,South,180,4.4,4.4,79,0.00,,OVC,0.00,0.00,VWS V14.00,2013-07-13 21:21:00,
2013-07-13 17:26:00,79.5,72.4,30.21,SSW,202,3.3,3.3,79,0.00,,OVC,0.00,0.00,VWS V14.00,2013-07-13 21:26:00,
2013-07-13 17:31:00,79.3,72.6,30.21,SE,135,7.1,7.1,80,0.00,,OVC,0.00,0.00,VWS V14.00,2013-07-13 21:31:00,
2013-07-13 17:36:00,78.9,72.2,30.21,South,180,1.1,1.1,80,0.00,,OVC,0.00,0.00,VWS V14.00,2013-07-13 21:36:00,
2013-07-13 17:41:00,78.9,72.6,30.22,SSW,202,0.0,0.0,81,0.00,,OVC,0.00,0.00,VWS V14.00,2013-07-13 21:41:00,
2013-07-13 17:46:00,78.9,72.6,30.22,South,180,7.6,7.6,81,0.00,,OVC,0.00,0.00,VWS V14.00,2013-07-13 21:46:00,
2013-07-13 17:51:00,78.6,72.3,30.22,South,180,3.3,3.3,81,0.00,,OVC,0.00,0.00,VWS V14.00,2013-07-13 21:51:00,
2013-07-13 17:56:00,78.6,72.3,30.22,SSE,158,0.6,0.6,81,0.00,,OVC,0.00,0.00,VWS V14.00,2013-07-13 21:56:00,
2013-07-13 18:01:00,78.6,72.3,30.22,SE,135,0.0,0.0,81,0.00,,OVC,0.00,0.00,VWS V14.00,2013-07-13 22:01:00,
2013-07-13 18:06:00,78.6,72.7,30.22,South,180,2.0,2.0,82,0.00,,OVC,0.00,0.00,VWS V14.00,2013-07-13 22:06:00,
2013-07-13 18:11:00,78.6,72.7,30.23,SE,135,0.0,1.1,82,0.00,,OVC,0.00,0.00,VWS V14.00,2013-07-13 22:11:00,
2013-07-13 18:16:00,78.6,72.7,30.23,SSW,202,0.0,0.0,82,0.00,,OVC,0.00,0.00,VWS V14.00,2013-07-13 22:16:00,
2013-07-13 18:21:00,78.6,72.7,30.23,South,180,0.0,0.0,82,0.00,,OVC,0.00,0.00,VWS V14.00,2013-07-13 22:21:00,
2013-07-13 18:26:00,78.4,72.4,30.23,ESE,112,0.0,0.0,82,0.00,,OVC,0.00,0.00,VWS V14.00,2013-07-13 22:26:00,
2013-07-13 18:31:00,78.0,72.1,30.23,SE,135,1.7,1.7,82,0.00,,OVC,0.00,0.00,VWS V14.00,2013-07-13 22:31:00,
2013-07-13 18:36:00,77.5,71.9,30.23,SSW,202,0.0,0.0,83,0.00,,OVC,0.00,0.00,VWS V14.00,2013-07-13 22:36:00,
2013-07-13 18:41:00,77.1,71.5,30.23,South,180,2.4,2.4,83,0.00,,OVC,0.00,0.00,VWS V14.00,2013-07-13 22:41:00,
2013-07-13 18:46:00,76.8,71.2,30.23,South,180,0.6,0.6,83,0.00,,OVC,0.00,0.00,VWS V14.00,2013-07-13 22:46:00,
2013-07-13 18:51:00,76.6,71.4,30.24,SSE,158,0.0,0.0,84,0.00,,OVC,0.00,0.00,VWS V14.00,2013-07-13 22:51:00,
2013-07-13 18:56:00,76.2,71.0,30.24,SSE,158,0.0,0.0,84,0.00,,OVC,0.00,0.00,VWS V14.00,2013-07-13 22:56:00,
2013-07-13 19:01:00,75.9,70.7,30.24,SSE,158,0.0,0.0,84,0.00,,OVC,0.00,0.00,VWS V14.00,2013-07-13 23:01:00,
2013-07-13 19:06:00,75.9,70.7,30.24,SSE,158,0.0,0.0,84,0.00,,OVC,0.00,0.00,VWS V14.00,2013-07-13 23:06:00,
2013-07-13 19:11:00,75.9,71.1,30.24,SE,135,0.0,0.0,85,0.00,,OVC,0.00,0.00,VWS V14.00,2013-07-13 23:11:00,
2013-07-13 19:16:00,75.7,70.9,30.24,ENE,68,0.0,0.0,85,0.00,,OVC,0.00,0.00,VWS V14.00,2013-07-13 23:16:00,
2013-07-13 19:21:00,75.7,70.9,30.24,ENE,68,0.0,0.0,85,0.00,,OVC,0.00,0.00,VWS V14.00,2013-07-13 23:21:00,
2013-07-13 19:26:00,75.5,70.7,30.24,SSE,158,0.0,0.0,85,0.00,,OVC,0.00,0.00,VWS V14.00,2013-07-13 23:26:00,
2013-07-13 19:31:00,75.3,70.5,30.24,SE,135,0.0,0.0,85,0.00,,OVC,0.00,0.00,VWS V14.00,2013-07-13 23:31:00,
2013-07-13 19:36:00,75.0,70.5,30.24,SSW,202,0.0,0.0,86,0.00,,OVC,0.00,0.00,VWS V14.00,2013-07-13 23:36:00,
2013-07-13 19:41:00,75.0,70.5,30.24,SSW,202,0.0,0.0,86,0.00,,OVC,0.00,0.00,VWS V14.00,2013-07-13 23:41:00,
2013-07-13 19:46:00,75.0,70.5,30.25,SSW,202,0.0,0.0,86,0.00,,OVC,0.00,0.00,VWS V14.00,2013-07-13 23:46:00,
2013-07-13 19:51:00,75.0,70.5,30.25,SSW,202,0.0,0.0,86,0.00,,OVC,0.00,0.00,VWS V14.00,2013-07-13 23:51:00,
2013-07-13 19:56:00,75.2,70.7,30.25,SSW,202,0.0,0.0,86,0.00,,OVC,0.00,0.00,VWS V14.00,2013-07-13 23:56:00,
2013-07-13 20:01:00,75.0,70.5,30.25,SSW,202,0.0,0.0,86,0.00,,OVC,0.00,0.00,VWS V14.00,2013-07-14 00:01:00,
2013-07-13 20:06:00,75.2,70.7,30.25,SSW,202,0.0,0.0,86,0.00,,OVC,0.00,0.00,VWS V14.00,2013-07-14 00:06:00,
2013-07-13 20:11:00,75.3,70.8,30.25,SSW,202,0.0,0.0,86,0.00,,OVC,0.00,0.00,VWS V14.00,2013-07-14 00:11:00,
2013-07-13 20:16:00,75.3,70.8,30.25,SSW,202,0.0,0.0,86,0.00,,OVC,0.00,0.00,VWS V14.00,2013-07-14 00:16:00,
2013-07-13 20:21:00,75.2,70.7,30.25,SSW,202,0.0,0.0,86,0.00,,OVC,0.00,0.00,VWS V14.00,2013-07-14 00:21:00,
2013-07-13 20:26:00,75.3,70.8,30.25,SSW,202,0.0,0.0,86,0.00,,OVC,0.00,0.00,VWS V14.00,2013-07-14 00:26:00,
2013-07-13 20:31:00,75.3,70.8,30.26,SSW,202,0.0,0.0,86,0.00,,OVC,0.00,0.00,VWS V14.00,2013-07-14 00:31:00,
2013-07-13 20:36:00,75.3,70.8,30.25,SSW,202,0.0,0.0,86,0.00,,OVC,0.00,0.00,VWS V14.00,2013-07-14 00:36:00,
2013-07-13 20:41:00,75.3,70.8,30.25,SSW,202,0.0,0.0,86,0.00,,OVC,0.00,0.00,VWS V14.00,2013-07-14 00:41:00,
2013-07-13 20:46:00,75.3,71.2,30.25,SSW,202,0.0,0.0,87,0.00,,OVC,0.00,0.00,VWS V14.00,2013-07-14 00:46:00,
2013-07-13 20:51:00,75.3,71.2,30.26,SSW,202,0.0,0.0,87,0.00,,OVC,0.00,0.00,VWS V14.00,2013-07-14 00:51:00,
2013-07-13 20:56:00,75.3,71.2,30.26,SSW,202,0.8,0.8,87,0.00,,OVC,0.00,0.00,VWS V14.00,2013-07-14 00:56:00,
2013-07-13 21:01:00,75.3,71.2,30.26,SSW,202,0.0,0.0,87,0.00,,OVC,0.00,0.00,VWS V14.00,2013-07-14 01:01:00,
2013-07-13 21:06:00,75.3,71.2,30.26,SSW,202,0.0,0.0,87,0.00,,OVC,0.00,0.00,VWS V14.00,2013-07-14 01:06:00,
2013-07-13 21:11:00,75.2,71.1,30.26,SSW,202,0.0,0.0,87,0.00,,OVC,0.00,0.00,VWS V14.00,2013-07-14 01:11:00,
2013-07-13 21:16:00,75.0,70.9,30.26,SSW,202,0.0,0.0,87,0.00,,OVC,0.00,0.00,VWS V14.00,2013-07-14 01:16:00,
2013-07-13 21:21:00,75.0,70.9,30.27,SSW,202,0.0,0.0,87,0.00,,OVC,0.00,0.00,VWS V14.00,2013-07-14 01:21:00,
2013-07-13 21:26:00,75.0,70.9,30.27,SSW,202,0.0,0.0,87,0.00,,OVC,0.00,0.00,VWS V14.00,2013-07-14 01:26:00,
2013-07-13 21:31:00,74.8,70.7,30.27,SSW,202,0.0,0.0,87,0.00,,OVC,0.00,0.00,VWS V14.00,2013-07-14 01:31:00,
2013-07-13 21:36:00,74.8,71.0,30.27,SSW,202,0.0,0.0,88,0.00,,OVC,0.00,0.00,VWS V14.00,2013-07-14 01:36:00,
2013-07-13 21:41:00,74.4,70.6,30.27,SSW,202,0.0,0.0,88,0.00,,OVC,0.00,0.00,VWS V14.00,2013-07-14 01:41:00,
2013-07-13 21:46:00,74.4,70.6,30.27,SSW,202,0.0,0.0,88,0.00,,OVC,0.00,0.00,VWS V14.00,2013-07-14 01:46:00,
2013-07-13 21:51:00,74.4,70.6,30.27,SSW,202,0.0,0.0,88,0.00,,OVC,0.00,0.00,VWS V14.00,2013-07-14 01:51:00,
2013-07-13 21:56:00,74.4,70.6,30.28,SSW,202,0.0,0.0,88,0.00,,OVC,0.00,0.00,VWS V14.00,2013-07-14 01:56:00,
2013-07-13 22:01:00,74.4,70.6,30.28,SSW,202,0.0,0.0,88,0.00,,OVC,0.00,0.00,VWS V14.00,2013-07-14 02:01:00,
2013-07-13 22:06:00,74.4,70.6,30.27,SSW,202,0.0,0.0,88,0.00,,OVC,0.00,0.00,VWS V14.00,2013-07-14 02:06:00,
2013-07-13 22:11:00,74.4,70.9,30.27,SSW,202,0.0,0.0,89,0.00,,OVC,0.00,0.00,VWS V14.00,2013-07-14 02:11:00,
2013-07-13 22:16:00,74.3,70.8,30.27,SSW,202,0.0,0.0,89,0.00,,OVC,0.00,0.00,VWS V14.00,2013-07-14 02:16:00,
2013-07-13 22:21:00,74.3,70.8,30.28,SSW,202,0.0,0.0,89,0.00,,OVC,0.00,0.00,VWS V14.00,2013-07-14 02:21:00,
2013-07-13 22:26:00,74.1,70.7,30.28,SSW,202,0.0,0.0,89,0.00,,OVC,0.00,0.00,VWS V14.00,2013-07-14 02:26:00,
2013-07-13 22:31:00,74.1,70.7,30.28,SSW,202,0.0,0.0,89,0.00,,OVC,0.00,0.00,VWS V14.00,2013-07-14 02:31:00,
2013-07-13 22:36:00,74.1,70.7,30.28,SSW,202,0.0,0.0,89,0.00,,OVC,0.00,0.00,VWS V14.00,2013-07-14 02:36:00,
2013-07-13 22:41:00,74.1,70.7,30.28,SSW,202,0.0,0.0,89,0.00,,OVC,0.00,0.00,VWS V14.00,2013-07-14 02:41:00,
2013-07-13 22:46:00,74.1,70.7,30.28,SSW,202,0.0,0.0,89,0.00,,OVC,0.00,0.00,VWS V14.00,2013-07-14 02:46:00,
2013-07-13 22:51:00,73.9,70.5,30.28,SSW,202,0.0,0.0,89,0.00,,OVC,0.00,0.00,VWS V14.00,2013-07-14 02:51:00,
2013-07-13 22:56:00,73.9,70.5,30.28,SSW,202,0.0,0.0,89,0.00,,OVC,0.00,0.00,VWS V14.00,2013-07-14 02:56:00,
2013-07-13 23:01:00,73.9,70.5,30.28,SW,225,0.0,0.0,89,0.00,,OVC,0.00,0.00,VWS V14.00,2013-07-14 03:01:00,
2013-07-13 23:06:00,73.9,70.5,30.28,SW,225,0.0,0.0,89,0.00,,OVC,0.00,0.00,VWS V14.00,2013-07-14 03:06:00,
2013-07-13 23:11:00,73.9,70.5,30.28,SW,225,0.0,0.0,89,0.00,,OVC,0.00,0.00,VWS V14.00,2013-07-14 03:11:00,
2013-07-13 23:16:00,73.9,70.5,30.28,SW,225,0.0,0.0,89,0.00,,OVC,0.00,0.00,VWS V14.00,2013-07-14 03:16:00,
2013-07-13 23:21:00,73.9,70.5,30.28,SW,225,0.0,0.0,89,0.00,,OVC,0.00,0.00,VWS V14.00,2013-07-14 03:21:00,
2013-07-13 23:26:00,73.9,70.5,30.28,SW,225,0.0,0.0,89,0.00,,OVC,0.00,0.00,VWS V14.00,2013-07-14 03:26:00,
2013-07-13 23:31:00,73.9,70.5,30.28,SW,225,0.0,0.0,89,0.00,,OVC,0.00,0.00,VWS V14.00,2013-07-14 03:31:00,
2013-07-13 23:36:00,73.9,70.8,30.28,SW,225,0.0,0.0,90,0.00,,OVC,0.00,0.00,VWS V14.00,2013-07-14 03:36:00,
2013-07-13 23:41:00,73.9,70.8,30.28,SW,225,0.0,0.0,90,0.00,,OVC,0.00,0.00,VWS V14.00,2013-07-14 03:41:00,
2013-07-13 23:46:00,73.9,70.8,30.28,SW,225,0.0,0.0,90,0.00,,OVC,0.00,0.00,VWS V14.00,2013-07-14 03:46:00,
2013-07-13 23:51:00,73.9,70.8,30.28,SW,225,0.0,0.0,90,0.00,,OVC,0.00,0.00,VWS V14.00,2013-07-14 03:51:00,
2013-07-13 23:56:00,73.9,70.8,30.28,WSW,248,1.7,1.7,90,0.00,,OVC,0.00,0.00,VWS V14.00,2013-07-14 03:56:00,